createdAt,value
2022-10-13T00:04:21.518Z,3.05
2022-10-13T00:15:21.030Z,3.04
2022-10-13T00:26:22.138Z,3.04
2022-10-13T00:37:23.546Z,3.04
2022-10-13T00:48:17.926Z,3.03
2022-10-13T00:59:10.861Z,3.03
2022-10-13T01:09:48.837Z,3.02
2022-10-13T01:20:30.093Z,3.00
2022-10-13T01:31:31.924Z,3.00
2022-10-13T01:42:29.459Z,3.00
2022-10-13T01:53:24.302Z,3.00
2022-10-13T02:04:26.651Z,3.00
2022-10-13T02:15:28.944Z,2.99
2022-10-13T02:26:09.186Z,2.98
2022-10-13T02:37:08.357Z,2.98
2022-10-13T02:47:46.781Z,2.97
2022-10-13T02:58:45.590Z,2.97
2022-10-13T03:09:46.588Z,2.97
2022-10-13T03:20:37.726Z,2.96
2022-10-13T03:31:35.391Z,2.96
2022-10-13T03:42:18.613Z,2.96
2022-10-13T03:53:02.226Z,2.95
2022-10-13T04:04:05.866Z,2.95
2022-10-13T04:15:01.273Z,2.95
2022-10-13T04:25:43.886Z,2.94
2022-10-13T04:36:46.983Z,2.94
2022-10-13T04:47:47.220Z,2.94
2022-10-13T04:58:56.498Z,2.94
2022-10-13T05:09:47.915Z,2.93
2022-10-13T05:21:20.086Z,2.93
2022-10-13T05:32:20.565Z,2.92
2022-10-13T05:43:27.717Z,2.94
2022-10-13T05:54:35.131Z,2.94
2022-10-13T06:05:34.439Z,2.96
2022-10-13T06:16:39.021Z,2.96
2022-10-13T06:27:41.178Z,2.97
2022-10-13T06:38:41.476Z,2.98
2022-10-13T06:49:27.603Z,2.99
2022-10-13T07:00:15.324Z,3.00
2022-10-13T07:10:54.245Z,3.01
2022-10-13T07:21:57.435Z,3.03
2022-10-13T07:32:58.824Z,3.04
2022-10-13T07:44:02.303Z,3.06
2022-10-13T07:55:04.722Z,3.07
2022-10-13T08:06:03.887Z,3.09
2022-10-13T08:17:06.044Z,3.10
2022-10-13T08:28:08.037Z,3.12
2022-10-13T08:39:07.981Z,3.14
2022-10-13T08:50:09.933Z,3.16
2022-10-13T09:01:12.903Z,3.18
2022-10-13T09:11:48.941Z,3.18
2022-10-13T09:22:50.375Z,3.21
2022-10-13T09:33:50.537Z,3.22
2022-10-13T09:44:52.570Z,3.25
2022-10-13T09:55:54.437Z,3.27
2022-10-13T10:06:55.157Z,3.28
2022-10-13T10:17:56.702Z,3.31
2022-10-13T10:28:58.803Z,3.32
2022-10-13T10:40:00.990Z,3.38
2022-10-13T10:51:01.600Z,3.33
2022-10-13T11:02:02.414Z,3.34
2022-10-13T11:12:36.082Z,3.36
2022-10-13T11:23:09.779Z,3.37
2022-10-13T11:33:41.664Z,3.36
2022-10-13T11:44:41.886Z,3.37
2022-10-13T11:55:40.909Z,3.36
2022-10-13T12:06:13.675Z,3.36
2022-10-13T12:17:12.977Z,3.34
2022-10-13T12:28:11.500Z,3.34
2022-10-13T12:39:04.455Z,3.34
2022-10-13T12:50:02.789Z,3.34
2022-10-13T13:01:11.688Z,3.36
2022-10-13T13:12:10.845Z,3.36
2022-10-13T13:23:09.707Z,3.37
2022-10-13T13:34:10.418Z,3.37
2022-10-13T13:45:03.364Z,3.34
2022-10-13T13:55:57.093Z,3.34
2022-10-13T14:06:53.506Z,3.34
2022-10-13T14:17:51.134Z,3.34
2022-10-13T14:28:50.632Z,3.34
2022-10-13T14:39:48.710Z,3.34
2022-10-13T14:50:48.088Z,3.39
2022-10-13T15:01:43.592Z,3.36
2022-10-13T15:12:40.627Z,3.34
2022-10-13T15:23:40.382Z,3.38
2022-10-13T15:34:14.169Z,3.34
2022-10-13T15:45:13.557Z,3.33
2022-10-13T15:55:46.682Z,3.30
2022-10-13T16:06:45.949Z,3.29
2022-10-13T16:17:45.232Z,3.28
2022-10-13T16:28:45.452Z,3.28
2022-10-13T16:39:51.185Z,3.27
2022-10-13T16:50:47.560Z,3.26
2022-10-13T17:01:48.043Z,3.25
2022-10-13T17:12:46.985Z,3.25
2022-10-13T17:23:43.490Z,3.24
2022-10-13T17:34:33.310Z,3.23
2022-10-13T17:45:11.095Z,3.22
2022-10-13T17:56:04.006Z,3.21
2022-10-13T18:06:58.800Z,3.21
2022-10-13T18:17:54.611Z,3.21
2022-10-13T18:28:47.329Z,3.20
2022-10-13T18:39:39.843Z,3.19
2022-10-13T18:50:36.922Z,3.19
2022-10-13T19:01:25.992Z,3.18
2022-10-13T19:12:06.933Z,3.17
2022-10-13T19:23:02.303Z,3.16
2022-10-13T19:33:48.585Z,3.15
2022-10-13T19:44:42.625Z,3.15
2022-10-13T19:55:18.378Z,3.14
2022-10-13T20:06:04.298Z,3.14
2022-10-13T20:16:39.657Z,3.12
2022-10-13T20:27:30.025Z,3.12
2022-10-13T20:38:23.961Z,3.11
2022-10-13T20:49:16.351Z,3.11
2022-10-13T21:00:16.504Z,3.11
2022-10-13T21:11:15.605Z,3.11
2022-10-13T21:22:16.810Z,3.11
2022-10-13T21:33:14.597Z,3.11
2022-10-13T21:44:12.299Z,3.10
2022-10-13T21:55:10.911Z,3.10
2022-10-13T22:05:51.819Z,3.10
2022-10-13T22:16:42.531Z,3.09
2022-10-13T22:27:43.388Z,3.09
2022-10-13T22:38:27.620Z,3.08
2022-10-13T22:49:28.175Z,3.08
2022-10-13T23:00:27.413Z,3.08
2022-10-13T23:11:25.961Z,3.08
2022-10-13T23:22:26.377Z,3.07
2022-10-13T23:33:23.365Z,3.07
2022-10-13T23:44:21.444Z,3.07
2022-10-13T23:55:22.473Z,3.07
